sensor_id;sensor_type;location;lat;lon;timestamp;temperature;humidity
13052;DHT22;6592;47.484;9.726;2022-08-18T00:01:48;20.70;99.90
13052;DHT22;6592;47.484;9.726;2022-08-18T00:04:18;20.70;99.90
13052;DHT22;6592;47.484;9.726;2022-08-18T00:07:01;20.60;99.90
13052;DHT22;6592;47.484;9.726;2022-08-18T00:09:29;20.50;99.90
13052;DHT22;6592;47.484;9.726;2022-08-18T00:11:59;20.50;99.90
13052;DHT22;6592;47.484;9.726;2022-08-18T00:14:29;20.50;99.90
13052;DHT22;6592;47.484;9.726;2022-08-18T00:16:57;20.40;99.90
13052;DHT22;6592;47.484;9.726;2022-08-18T00:19:25;20.30;99.90
13052;DHT22;6592;47.484;9.726;2022-08-18T00:22:14;20.30;99.90
13052;DHT22;6592;47.484;9.726;2022-08-18T00:24:43;20.20;99.90
13052;DHT22;6592;47.484;9.726;2022-08-18T00:27:14;20.20;99.90
13052;DHT22;6592;47.484;9.726;2022-08-18T00:29:44;20.10;99.90
13052;DHT22;6592;47.484;9.726;2022-08-18T00:32:13;20.10;99.90
13052;DHT22;6592;47.484;9.726;2022-08-18T00:34:41;20.00;99.90
13052;DHT22;6592;47.484;9.726;2022-08-18T00:37:09;20.00;99.90
13052;DHT22;6592;47.484;9.726;2022-08-18T00:39:38;20.00;99.90
13052;DHT22;6592;47.484;9.726;2022-08-18T00:42:13;20.00;99.90
13052;DHT22;6592;47.484;9.726;2022-08-18T00:44:59;20.00;99.90
13052;DHT22;6592;47.484;9.726;2022-08-18T00:47:28;20.00;99.90
13052;DHT22;6592;47.484;9.726;2022-08-18T00:50:17;19.90;99.90
13052;DHT22;6592;47.484;9.726;2022-08-18T00:52:46;19.90;99.90
13052;DHT22;6592;47.484;9.726;2022-08-18T00:55:16;19.90;99.90
13052;DHT22;6592;47.484;9.726;2022-08-18T00:57:45;19.80;99.90
13052;DHT22;6592;47.484;9.726;2022-08-18T01:00:16;19.80;99.90
13052;DHT22;6592;47.484;9.726;2022-08-18T01:02:45;19.80;99.90
13052;DHT22;6592;47.484;9.726;2022-08-18T01:05:16;19.70;99.90
13052;DHT22;6592;47.484;9.726;2022-08-18T01:07:46;19.70;99.90
13052;DHT22;6592;47.484;9.726;2022-08-18T01:10:16;19.60;99.90
13052;DHT22;6592;47.484;9.726;2022-08-18T01:12:46;19.60;99.90
13052;DHT22;6592;47.484;9.726;2022-08-18T01:15:17;19.60;99.90
13052;DHT22;6592;47.484;9.726;2022-08-18T01:17:56;19.50;99.90
13052;DHT22;6592;47.484;9.726;2022-08-18T01:20:43;19.50;99.90
13052;DHT22;6592;47.484;9.726;2022-08-18T01:23:42;19.40;99.90
13052;DHT22;6592;47.484;9.726;2022-08-18T01:26:12;19.40;99.90
13052;DHT22;6592;47.484;9.726;2022-08-18T01:28:39;19.40;99.90
13052;DHT22;6592;47.484;9.726;2022-08-18T01:31:08;19.40;99.90
13052;DHT22;6592;47.484;9.726;2022-08-18T01:33:38;19.40;99.90
13052;DHT22;6592;47.484;9.726;2022-08-18T01:36:09;19.40;99.90
13052;DHT22;6592;47.484;9.726;2022-08-18T01:38:44;19.40;99.90
13052;DHT22;6592;47.484;9.726;2022-08-18T01:41:12;19.40;99.90
13052;DHT22;6592;47.484;9.726;2022-08-18T01:43:54;19.30;99.90
13052;DHT22;6592;47.484;9.726;2022-08-18T01:46:23;19.30;99.90
13052;DHT22;6592;47.484;9.726;2022-08-18T01:48:51;19.30;99.90
13052;DHT22;6592;47.484;9.726;2022-08-18T01:51:19;19.30;99.90
13052;DHT22;6592;47.484;9.726;2022-08-18T01:54:08;19.30;99.90
13052;DHT22;6592;47.484;9.726;2022-08-18T01:56:38;19.30;99.90
13052;DHT22;6592;47.484;9.726;2022-08-18T01:59:07;19.20;99.90
13052;DHT22;6592;47.484;9.726;2022-08-18T02:01:41;19.20;99.90
13052;DHT22;6592;47.484;9.726;2022-08-18T02:04:15;19.10;99.90
13052;DHT22;6592;47.484;9.726;2022-08-18T02:07:01;19.10;99.90
13052;DHT22;6592;47.484;9.726;2022-08-18T02:09:31;19.00;99.90
13052;DHT22;6592;47.484;9.726;2022-08-18T02:12:00;19.00;99.90
13052;DHT22;6592;47.484;9.726;2022-08-18T02:14:28;18.90;99.90
13052;DHT22;6592;47.484;9.726;2022-08-18T02:16:57;19.00;99.90
13052;DHT22;6592;47.484;9.726;2022-08-18T02:19:31;19.00;99.90
13052;DHT22;6592;47.484;9.726;2022-08-18T02:21:59;19.00;99.90
13052;DHT22;6592;47.484;9.726;2022-08-18T02:24:27;19.00;99.90
13052;DHT22;6592;47.484;9.726;2022-08-18T02:26:57;19.00;99.90
13052;DHT22;6592;47.484;9.726;2022-08-18T02:29:25;19.10;99.90
13052;DHT22;6592;47.484;9.726;2022-08-18T02:31:53;19.10;99.90
13052;DHT22;6592;47.484;9.726;2022-08-18T02:34:21;19.10;99.90
13052;DHT22;6592;47.484;9.726;2022-08-18T02:36:49;19.00;99.90
13052;DHT22;6592;47.484;9.726;2022-08-18T02:39:18;19.00;99.90
13052;DHT22;6592;47.484;9.726;2022-08-18T02:41:46;19.10;99.90
13052;DHT22;6592;47.484;9.726;2022-08-18T02:44:16;19.00;99.90
13052;DHT22;6592;47.484;9.726;2022-08-18T02:46:44;19.00;99.90
13052;DHT22;6592;47.484;9.726;2022-08-18T02:49:12;19.00;99.90
13052;DHT22;6592;47.484;9.726;2022-08-18T02:51:40;19.00;99.90
13052;DHT22;6592;47.484;9.726;2022-08-18T02:54:12;19.10;99.90
13052;DHT22;6592;47.484;9.726;2022-08-18T02:56:40;19.00;99.90
13052;DHT22;6592;47.484;9.726;2022-08-18T02:59:11;19.00;99.90
13052;DHT22;6592;47.484;9.726;2022-08-18T03:01:42;18.90;99.90
13052;DHT22;6592;47.484;9.726;2022-08-18T03:04:11;19.00;99.90
13052;DHT22;6592;47.484;9.726;2022-08-18T03:06:41;18.90;99.90
13052;DHT22;6592;47.484;9.726;2022-08-18T03:09:11;18.90;99.90
13052;DHT22;6592;47.484;9.726;2022-08-18T03:11:40;18.80;99.90
13052;DHT22;6592;47.484;9.726;2022-08-18T03:14:09;18.80;99.90
13052;DHT22;6592;47.484;9.726;2022-08-18T03:16:38;18.90;99.90
13052;DHT22;6592;47.484;9.726;2022-08-18T03:19:22;18.90;99.90
13052;DHT22;6592;47.484;9.726;2022-08-18T03:21:50;19.00;99.90
13052;DHT22;6592;47.484;9.726;2022-08-18T03:24:23;18.80;99.90
13052;DHT22;6592;47.484;9.726;2022-08-18T03:26:52;19.00;99.90
13052;DHT22;6592;47.484;9.726;2022-08-18T03:29:21;19.10;99.90
13052;DHT22;6592;47.484;9.726;2022-08-18T03:31:57;19.10;99.90
13052;DHT22;6592;47.484;9.726;2022-08-18T03:34:27;19.10;99.90
13052;DHT22;6592;47.484;9.726;2022-08-18T03:36:55;19.00;99.90
13052;DHT22;6592;47.484;9.726;2022-08-18T03:39:24;19.00;99.90
13052;DHT22;6592;47.484;9.726;2022-08-18T03:41:53;19.00;99.90
13052;DHT22;6592;47.484;9.726;2022-08-18T03:44:26;19.00;99.90
13052;DHT22;6592;47.484;9.726;2022-08-18T03:46:54;19.00;99.90
13052;DHT22;6592;47.484;9.726;2022-08-18T03:49:23;19.00;99.90
13052;DHT22;6592;47.484;9.726;2022-08-18T03:51:54;19.00;99.90
13052;DHT22;6592;47.484;9.726;2022-08-18T03:54:25;19.00;99.90
13052;DHT22;6592;47.484;9.726;2022-08-18T03:56:54;19.10;99.90
13052;DHT22;6592;47.484;9.726;2022-08-18T03:59:23;19.00;99.90
13052;DHT22;6592;47.484;9.726;2022-08-18T04:01:52;19.00;99.90
13052;DHT22;6592;47.484;9.726;2022-08-18T04:04:22;18.90;99.90
13052;DHT22;6592;47.484;9.726;2022-08-18T04:06:52;18.90;99.90
13052;DHT22;6592;47.484;9.726;2022-08-18T04:09:23;18.80;99.90
13052;DHT22;6592;47.484;9.726;2022-08-18T04:11:52;18.80;99.90
13052;DHT22;6592;47.484;9.726;2022-08-18T04:14:21;18.80;99.90
13052;DHT22;6592;47.484;9.726;2022-08-18T04:16:51;18.80;99.90
13052;DHT22;6592;47.484;9.726;2022-08-18T04:19:19;18.80;99.90
13052;DHT22;6592;47.484;9.726;2022-08-18T04:21:53;18.80;99.90
13052;DHT22;6592;47.484;9.726;2022-08-18T04:24:24;18.80;99.90
13052;DHT22;6592;47.484;9.726;2022-08-18T04:26:57;18.90;99.90
13052;DHT22;6592;47.484;9.726;2022-08-18T04:29:26;18.90;99.90
13052;DHT22;6592;47.484;9.726;2022-08-18T04:31:54;18.90;99.90
13052;DHT22;6592;47.484;9.726;2022-08-18T04:34:22;18.90;99.90
13052;DHT22;6592;47.484;9.726;2022-08-18T04:36:50;18.90;99.90
13052;DHT22;6592;47.484;9.726;2022-08-18T04:39:20;19.00;99.90
13052;DHT22;6592;47.484;9.726;2022-08-18T04:41:50;18.90;99.90
13052;DHT22;6592;47.484;9.726;2022-08-18T04:44:19;18.80;99.90
13052;DHT22;6592;47.484;9.726;2022-08-18T04:46:48;18.80;99.90
13052;DHT22;6592;47.484;9.726;2022-08-18T04:49:17;18.80;99.90
13052;DHT22;6592;47.484;9.726;2022-08-18T04:51:46;18.80;99.90
13052;DHT22;6592;47.484;9.726;2022-08-18T04:54:55;18.70;99.90
13052;DHT22;6592;47.484;9.726;2022-08-18T04:57:23;18.70;99.90
13052;DHT22;6592;47.484;9.726;2022-08-18T04:59:52;18.60;99.90
13052;DHT22;6592;47.484;9.726;2022-08-18T05:02:20;18.60;99.90
13052;DHT22;6592;47.484;9.726;2022-08-18T05:04:49;18.50;99.90
13052;DHT22;6592;47.484;9.726;2022-08-18T05:07:19;18.40;99.90
13052;DHT22;6592;47.484;9.726;2022-08-18T05:09:48;18.40;99.90
13052;DHT22;6592;47.484;9.726;2022-08-18T05:12:17;18.40;99.90
13052;DHT22;6592;47.484;9.726;2022-08-18T05:14:52;18.40;99.90
13052;DHT22;6592;47.484;9.726;2022-08-18T05:17:23;18.50;99.90
13052;DHT22;6592;47.484;9.726;2022-08-18T05:19:56;18.60;99.90
13052;DHT22;6592;47.484;9.726;2022-08-18T05:22:26;18.70;99.90
13052;DHT22;6592;47.484;9.726;2022-08-18T05:24:57;18.70;99.90
13052;DHT22;6592;47.484;9.726;2022-08-18T05:27:29;18.80;99.90
13052;DHT22;6592;47.484;9.726;2022-08-18T05:30:00;18.80;99.90
13052;DHT22;6592;47.484;9.726;2022-08-18T05:32:28;18.90;99.90
13052;DHT22;6592;47.484;9.726;2022-08-18T05:35:17;18.90;99.90
13052;DHT22;6592;47.484;9.726;2022-08-18T05:37:50;19.00;99.90
13052;DHT22;6592;47.484;9.726;2022-08-18T05:40:23;19.00;99.90
13052;DHT22;6592;47.484;9.726;2022-08-18T05:42:52;19.10;99.90
13052;DHT22;6592;47.484;9.726;2022-08-18T05:45:24;19.00;99.90
13052;DHT22;6592;47.484;9.726;2022-08-18T05:47:55;19.00;99.90
13052;DHT22;6592;47.484;9.726;2022-08-18T05:50:24;18.80;99.90
13052;DHT22;6592;47.484;9.726;2022-08-18T05:52:53;18.70;99.90
13052;DHT22;6592;47.484;9.726;2022-08-18T05:55:25;18.70;99.90
13052;DHT22;6592;47.484;9.726;2022-08-18T05:58:14;18.70;99.90
13052;DHT22;6592;47.484;9.726;2022-08-18T06:00:46;19.00;99.90
13052;DHT22;6592;47.484;9.726;2022-08-18T06:03:27;19.00;99.90
13052;DHT22;6592;47.484;9.726;2022-08-18T06:06:13;19.10;99.90
13052;DHT22;6592;47.484;9.726;2022-08-18T06:08:42;19.30;99.90
13052;DHT22;6592;47.484;9.726;2022-08-18T06:11:11;19.40;99.90
13052;DHT22;6592;47.484;9.726;2022-08-18T06:13:48;19.40;99.90
13052;DHT22;6592;47.484;9.726;2022-08-18T06:16:37;19.40;99.90
13052;DHT22;6592;47.484;9.726;2022-08-18T06:19:15;19.50;99.90
13052;DHT22;6592;47.484;9.726;2022-08-18T06:21:47;19.40;99.90
13052;DHT22;6592;47.484;9.726;2022-08-18T06:24:20;19.50;99.90
13052;DHT22;6592;47.484;9.726;2022-08-18T06:26:53;19.60;99.90
13052;DHT22;6592;47.484;9.726;2022-08-18T06:29:29;19.50;99.90
13052;DHT22;6592;47.484;9.726;2022-08-18T06:32:04;19.70;99.90
13052;DHT22;6592;47.484;9.726;2022-08-18T06:34:38;19.60;99.90
13052;DHT22;6592;47.484;9.726;2022-08-18T06:37:09;19.80;99.90
13052;DHT22;6592;47.484;9.726;2022-08-18T06:39:40;19.90;99.90
13052;DHT22;6592;47.484;9.726;2022-08-18T06:42:10;19.90;99.90
13052;DHT22;6592;47.484;9.726;2022-08-18T06:44:40;20.10;99.90
13052;DHT22;6592;47.484;9.726;2022-08-18T06:47:13;20.20;99.90
13052;DHT22;6592;47.484;9.726;2022-08-18T06:49:46;20.30;99.90
13052;DHT22;6592;47.484;9.726;2022-08-18T06:52:26;20.40;99.90
13052;DHT22;6592;47.484;9.726;2022-08-18T06:54:56;20.40;99.90
13052;DHT22;6592;47.484;9.726;2022-08-18T06:57:27;20.60;99.90
13052;DHT22;6592;47.484;9.726;2022-08-18T06:59:57;20.90;99.90
13052;DHT22;6592;47.484;9.726;2022-08-18T07:02:29;21.20;99.90
13052;DHT22;6592;47.484;9.726;2022-08-18T07:05:03;21.50;99.90
13052;DHT22;6592;47.484;9.726;2022-08-18T07:07:33;21.80;99.90
13052;DHT22;6592;47.484;9.726;2022-08-18T07:10:30;22.20;99.90
13052;DHT22;6592;47.484;9.726;2022-08-18T07:13:05;22.70;99.90
13052;DHT22;6592;47.484;9.726;2022-08-18T07:15:33;23.20;99.90
13052;DHT22;6592;47.484;9.726;2022-08-18T07:18:04;23.90;99.90
13052;DHT22;6592;47.484;9.726;2022-08-18T07:20:39;24.20;99.90
13052;DHT22;6592;47.484;9.726;2022-08-18T07:23:08;24.00;99.90
13052;DHT22;6592;47.484;9.726;2022-08-18T07:25:46;23.80;99.90
13052;DHT22;6592;47.484;9.726;2022-08-18T07:28:25;23.60;99.90
13052;DHT22;6592;47.484;9.726;2022-08-18T07:31:03;23.40;99.90
13052;DHT22;6592;47.484;9.726;2022-08-18T07:33:47;23.20;99.90
13052;DHT22;6592;47.484;9.726;2022-08-18T07:36:16;23.10;99.90
13052;DHT22;6592;47.484;9.726;2022-08-18T07:38:48;23.00;99.90
13052;DHT22;6592;47.484;9.726;2022-08-18T07:41:18;23.00;99.90
13052;DHT22;6592;47.484;9.726;2022-08-18T07:43:51;22.80;99.90
13052;DHT22;6592;47.484;9.726;2022-08-18T07:46:27;22.80;99.90
13052;DHT22;6592;47.484;9.726;2022-08-18T07:49:00;23.00;99.90
13052;DHT22;6592;47.484;9.726;2022-08-18T07:51:33;22.90;99.90
13052;DHT22;6592;47.484;9.726;2022-08-18T07:54:12;22.90;99.90
13052;DHT22;6592;47.484;9.726;2022-08-18T07:57:05;22.90;99.90
13052;DHT22;6592;47.484;9.726;2022-08-18T07:59:38;23.00;99.90
13052;DHT22;6592;47.484;9.726;2022-08-18T08:02:18;23.10;99.90
13052;DHT22;6592;47.484;9.726;2022-08-18T08:04:52;23.10;99.90
13052;DHT22;6592;47.484;9.726;2022-08-18T08:07:29;23.10;99.90
13052;DHT22;6592;47.484;9.726;2022-08-18T08:12:33;23.20;99.90
13052;DHT22;6592;47.484;9.726;2022-08-18T08:15:05;23.20;99.90
13052;DHT22;6592;47.484;9.726;2022-08-18T08:17:39;23.20;99.90
13052;DHT22;6592;47.484;9.726;2022-08-18T08:20:12;23.10;99.90
13052;DHT22;6592;47.484;9.726;2022-08-18T08:22:43;23.10;99.90
13052;DHT22;6592;47.484;9.726;2022-08-18T08:25:15;23.10;99.90
13052;DHT22;6592;47.484;9.726;2022-08-18T08:28:08;23.00;99.90
13052;DHT22;6592;47.484;9.726;2022-08-18T08:30:43;23.10;99.90
13052;DHT22;6592;47.484;9.726;2022-08-18T08:33:16;23.10;99.90
13052;DHT22;6592;47.484;9.726;2022-08-18T08:35:50;23.40;99.90
13052;DHT22;6592;47.484;9.726;2022-08-18T08:38:21;23.70;99.90
13052;DHT22;6592;47.484;9.726;2022-08-18T08:41:10;23.70;99.90
13052;DHT22;6592;47.484;9.726;2022-08-18T08:43:41;23.90;99.90
13052;DHT22;6592;47.484;9.726;2022-08-18T08:46:11;24.00;99.90
13052;DHT22;6592;47.484;9.726;2022-08-18T08:48:42;24.00;99.90
13052;DHT22;6592;47.484;9.726;2022-08-18T08:51:18;23.90;99.90
13052;DHT22;6592;47.484;9.726;2022-08-18T08:53:57;23.90;99.90
13052;DHT22;6592;47.484;9.726;2022-08-18T08:56:28;23.90;99.90
13052;DHT22;6592;47.484;9.726;2022-08-18T08:58:57;23.90;99.90
13052;DHT22;6592;47.484;9.726;2022-08-18T09:01:28;24.00;99.90
13052;DHT22;6592;47.484;9.726;2022-08-18T09:03:59;24.20;99.90
13052;DHT22;6592;47.484;9.726;2022-08-18T09:06:32;24.40;99.90
13052;DHT22;6592;47.484;9.726;2022-08-18T09:09:13;24.70;99.90
13052;DHT22;6592;47.484;9.726;2022-08-18T09:14:36;25.10;99.90
13052;DHT22;6592;47.484;9.726;2022-08-18T09:17:12;25.70;99.90
13052;DHT22;6592;47.484;9.726;2022-08-18T09:19:48;26.10;99.90
13052;DHT22;6592;47.484;9.726;2022-08-18T09:22:28;26.60;99.90
13052;DHT22;6592;47.484;9.726;2022-08-18T09:24:59;27.00;99.90
13052;DHT22;6592;47.484;9.726;2022-08-18T09:27:31;27.30;99.90
13052;DHT22;6592;47.484;9.726;2022-08-18T09:30:35;27.60;99.90
13052;DHT22;6592;47.484;9.726;2022-08-18T09:33:18;27.30;99.90
13052;DHT22;6592;47.484;9.726;2022-08-18T09:38:44;27.90;99.90
13052;DHT22;6592;47.484;9.726;2022-08-18T09:41:32;28.40;99.90
13052;DHT22;6592;47.484;9.726;2022-08-18T09:44:02;28.70;99.90
13052;DHT22;6592;47.484;9.726;2022-08-18T09:46:51;28.70;99.90
13052;DHT22;6592;47.484;9.726;2022-08-18T09:49:30;28.70;99.90
13052;DHT22;6592;47.484;9.726;2022-08-18T09:54:52;28.60;99.90
13052;DHT22;6592;47.484;9.726;2022-08-18T09:57:21;28.70;99.90
13052;DHT22;6592;47.484;9.726;2022-08-18T10:05:34;28.70;99.90
13052;DHT22;6592;47.484;9.726;2022-08-18T10:10:52;28.50;99.90
13052;DHT22;6592;47.484;9.726;2022-08-18T10:13:34;28.60;99.90
13052;DHT22;6592;47.484;9.726;2022-08-18T10:16:16;28.70;99.90
13052;DHT22;6592;47.484;9.726;2022-08-18T10:18:49;28.60;99.90
13052;DHT22;6592;47.484;9.726;2022-08-18T10:21:21;28.50;99.90
13052;DHT22;6592;47.484;9.726;2022-08-18T10:24:15;28.70;99.90
13052;DHT22;6592;47.484;9.726;2022-08-18T10:27:05;28.90;99.90
13052;DHT22;6592;47.484;9.726;2022-08-18T10:29:47;28.90;99.90
13052;DHT22;6592;47.484;9.726;2022-08-18T10:32:17;28.80;99.90
13052;DHT22;6592;47.484;9.726;2022-08-18T10:34:49;28.50;99.90
13052;DHT22;6592;47.484;9.726;2022-08-18T10:37:18;28.10;99.90
13052;DHT22;6592;47.484;9.726;2022-08-18T10:39:52;27.80;99.90
13052;DHT22;6592;47.484;9.726;2022-08-18T10:42:23;27.50;99.90
13052;DHT22;6592;47.484;9.726;2022-08-18T10:44:59;27.10;99.90
13052;DHT22;6592;47.484;9.726;2022-08-18T10:47:32;27.00;99.90
13052;DHT22;6592;47.484;9.726;2022-08-18T10:50:02;26.60;99.90
13052;DHT22;6592;47.484;9.726;2022-08-18T10:52:37;26.20;99.90
13052;DHT22;6592;47.484;9.726;2022-08-18T11:01:02;25.60;99.90
13052;DHT22;6592;47.484;9.726;2022-08-18T11:03:40;25.50;99.90
13052;DHT22;6592;47.484;9.726;2022-08-18T11:06:19;25.30;99.90
13052;DHT22;6592;47.484;9.726;2022-08-18T11:08:57;25.50;99.90
13052;DHT22;6592;47.484;9.726;2022-08-18T11:11:28;25.30;99.90
13052;DHT22;6592;47.484;9.726;2022-08-18T11:14:07;25.30;99.90
13052;DHT22;6592;47.484;9.726;2022-08-18T11:16:43;25.20;99.90
13052;DHT22;6592;47.484;9.726;2022-08-18T11:19:19;25.20;99.90
13052;DHT22;6592;47.484;9.726;2022-08-18T11:21:49;25.40;99.90
13052;DHT22;6592;47.484;9.726;2022-08-18T11:24:18;25.60;99.90
13052;DHT22;6592;47.484;9.726;2022-08-18T11:26:50;25.70;99.90
13052;DHT22;6592;47.484;9.726;2022-08-18T11:29:20;25.70;99.90
13052;DHT22;6592;47.484;9.726;2022-08-18T11:31:51;25.70;99.90
13052;DHT22;6592;47.484;9.726;2022-08-18T11:34:27;25.60;99.90
13052;DHT22;6592;47.484;9.726;2022-08-18T11:36:56;25.50;99.90
13052;DHT22;6592;47.484;9.726;2022-08-18T11:39:25;25.20;99.90
13052;DHT22;6592;47.484;9.726;2022-08-18T11:42:04;25.00;99.90
13052;DHT22;6592;47.484;9.726;2022-08-18T11:44:52;24.80;99.90
13052;DHT22;6592;47.484;9.726;2022-08-18T11:47:22;24.80;99.90
13052;DHT22;6592;47.484;9.726;2022-08-18T11:49:56;24.60;99.90
13052;DHT22;6592;47.484;9.726;2022-08-18T11:52:29;24.60;99.90
13052;DHT22;6592;47.484;9.726;2022-08-18T11:55:02;24.60;99.90
13052;DHT22;6592;47.484;9.726;2022-08-18T11:57:48;24.60;99.90
13052;DHT22;6592;47.484;9.726;2022-08-18T12:03:28;24.30;99.90
13052;DHT22;6592;47.484;9.726;2022-08-18T12:05:58;24.60;99.90
13052;DHT22;6592;47.484;9.726;2022-08-18T12:08:29;24.70;99.90
13052;DHT22;6592;47.484;9.726;2022-08-18T12:11:21;24.80;99.90
13052;DHT22;6592;47.484;9.726;2022-08-18T12:13:57;24.80;99.90
13052;DHT22;6592;47.484;9.726;2022-08-18T12:16:46;24.90;99.90
13052;DHT22;6592;47.484;9.726;2022-08-18T12:19:17;24.80;99.90
13052;DHT22;6592;47.484;9.726;2022-08-18T12:21:50;24.80;99.90
13052;DHT22;6592;47.484;9.726;2022-08-18T12:24:20;24.80;99.90
13052;DHT22;6592;47.484;9.726;2022-08-18T12:26:55;24.80;99.90
13052;DHT22;6592;47.484;9.726;2022-08-18T12:29:26;24.80;99.90
13052;DHT22;6592;47.484;9.726;2022-08-18T12:32:09;24.80;99.90
13052;DHT22;6592;47.484;9.726;2022-08-18T12:34:58;24.90;99.90
13052;DHT22;6592;47.484;9.726;2022-08-18T12:37:34;25.00;99.90
13052;DHT22;6592;47.484;9.726;2022-08-18T12:40:24;25.10;99.90
13052;DHT22;6592;47.484;9.726;2022-08-18T12:42:52;25.10;99.90
13052;DHT22;6592;47.484;9.726;2022-08-18T12:45:21;25.10;99.90
13052;DHT22;6592;47.484;9.726;2022-08-18T12:47:52;25.10;99.90
13052;DHT22;6592;47.484;9.726;2022-08-18T12:50:22;25.20;99.90
13052;DHT22;6592;47.484;9.726;2022-08-18T12:53:00;25.20;99.90
13052;DHT22;6592;47.484;9.726;2022-08-18T12:55:29;25.20;99.90
13052;DHT22;6592;47.484;9.726;2022-08-18T12:58:00;25.20;99.90
13052;DHT22;6592;47.484;9.726;2022-08-18T13:00:30;25.10;99.90
13052;DHT22;6592;47.484;9.726;2022-08-18T13:02:58;25.00;99.90
13052;DHT22;6592;47.484;9.726;2022-08-18T13:05:28;25.00;99.90
13052;DHT22;6592;47.484;9.726;2022-08-18T13:07:56;24.90;99.90
13052;DHT22;6592;47.484;9.726;2022-08-18T13:10:25;24.70;99.90
13052;DHT22;6592;47.484;9.726;2022-08-18T13:13:11;24.60;99.90
13052;DHT22;6592;47.484;9.726;2022-08-18T13:15:40;24.50;99.90
13052;DHT22;6592;47.484;9.726;2022-08-18T13:18:24;24.50;99.90
13052;DHT22;6592;47.484;9.726;2022-08-18T13:20:56;24.40;99.90
13052;DHT22;6592;47.484;9.726;2022-08-18T13:23:24;24.20;99.90
13052;DHT22;6592;47.484;9.726;2022-08-18T13:25:54;24.10;99.90
13052;DHT22;6592;47.484;9.726;2022-08-18T13:28:28;24.00;99.90
13052;DHT22;6592;47.484;9.726;2022-08-18T13:31:01;24.00;99.90
13052;DHT22;6592;47.484;9.726;2022-08-18T13:33:31;23.90;99.90
13052;DHT22;6592;47.484;9.726;2022-08-18T13:36:20;23.70;99.90
13052;DHT22;6592;47.484;9.726;2022-08-18T13:38:48;23.70;99.90
13052;DHT22;6592;47.484;9.726;2022-08-18T13:41:20;23.60;99.90
13052;DHT22;6592;47.484;9.726;2022-08-18T13:43:50;23.60;99.90
13052;DHT22;6592;47.484;9.726;2022-08-18T13:46:18;23.50;99.90
13052;DHT22;6592;47.484;9.726;2022-08-18T13:48:56;23.50;99.90
13052;DHT22;6592;47.484;9.726;2022-08-18T13:51:28;23.40;99.90
13052;DHT22;6592;47.484;9.726;2022-08-18T13:53:56;23.40;99.90
13052;DHT22;6592;47.484;9.726;2022-08-18T13:56:44;23.30;99.90
13052;DHT22;6592;47.484;9.726;2022-08-18T13:59:18;23.30;99.90
13052;DHT22;6592;47.484;9.726;2022-08-18T14:01:46;23.10;99.90
13052;DHT22;6592;47.484;9.726;2022-08-18T14:04:18;23.00;99.90
13052;DHT22;6592;47.484;9.726;2022-08-18T14:06:50;22.90;99.90
13052;DHT22;6592;47.484;9.726;2022-08-18T14:09:24;22.90;99.90
13052;DHT22;6592;47.484;9.726;2022-08-18T14:12:02;22.80;99.90
13052;DHT22;6592;47.484;9.726;2022-08-18T14:14:31;22.70;99.90
13052;DHT22;6592;47.484;9.726;2022-08-18T14:17:01;22.70;99.90
13052;DHT22;6592;47.484;9.726;2022-08-18T14:19:32;22.70;99.90
13052;DHT22;6592;47.484;9.726;2022-08-18T14:22:19;22.60;99.90
13052;DHT22;6592;47.484;9.726;2022-08-18T14:25:05;22.60;99.90
13052;DHT22;6592;47.484;9.726;2022-08-18T14:27:52;22.60;99.90
13052;DHT22;6592;47.484;9.726;2022-08-18T14:30:22;22.60;99.90
13052;DHT22;6592;47.484;9.726;2022-08-18T14:32:51;22.50;99.90
13052;DHT22;6592;47.484;9.726;2022-08-18T14:35:23;22.50;99.90
13052;DHT22;6592;47.484;9.726;2022-08-18T14:38:01;22.40;99.90
13052;DHT22;6592;47.484;9.726;2022-08-18T14:40:31;22.40;99.90
13052;DHT22;6592;47.484;9.726;2022-08-18T14:43:00;22.40;99.90
13052;DHT22;6592;47.484;9.726;2022-08-18T14:45:33;22.30;99.90
13052;DHT22;6592;47.484;9.726;2022-08-18T14:48:02;22.30;99.90
13052;DHT22;6592;47.484;9.726;2022-08-18T14:50:36;22.30;99.90
13052;DHT22;6592;47.484;9.726;2022-08-18T14:53:16;22.20;99.90
13052;DHT22;6592;47.484;9.726;2022-08-18T14:55:45;22.10;99.90
13052;DHT22;6592;47.484;9.726;2022-08-18T14:58:17;22.00;99.90
13052;DHT22;6592;47.484;9.726;2022-08-18T15:00:46;21.80;99.90
13052;DHT22;6592;47.484;9.726;2022-08-18T15:03:19;21.60;99.90
13052;DHT22;6592;47.484;9.726;2022-08-18T15:05:56;21.50;99.90
13052;DHT22;6592;47.484;9.726;2022-08-18T15:08:26;21.40;99.90
13052;DHT22;6592;47.484;9.726;2022-08-18T15:10:55;21.30;99.90
13052;DHT22;6592;47.484;9.726;2022-08-18T15:13:24;21.30;99.90
13052;DHT22;6592;47.484;9.726;2022-08-18T15:15:53;21.20;99.90
13052;DHT22;6592;47.484;9.726;2022-08-18T15:18:28;20.90;99.90
13052;DHT22;6592;47.484;9.726;2022-08-18T15:20:57;20.70;99.90
13052;DHT22;6592;47.484;9.726;2022-08-18T15:24:05;20.80;99.90
13052;DHT22;6592;47.484;9.726;2022-08-18T15:26:51;20.80;99.90
13052;DHT22;6592;47.484;9.726;2022-08-18T15:29:28;20.50;99.90
13052;DHT22;6592;47.484;9.726;2022-08-18T15:31:57;20.30;99.90
13052;DHT22;6592;47.484;9.726;2022-08-18T15:34:32;20.00;99.90
13052;DHT22;6592;47.484;9.726;2022-08-18T15:37:12;19.80;99.90
13052;DHT22;6592;47.484;9.726;2022-08-18T15:39:42;19.60;99.90
13052;DHT22;6592;47.484;9.726;2022-08-18T15:42:11;19.40;99.90
13052;DHT22;6592;47.484;9.726;2022-08-18T15:44:39;19.20;99.90
13052;DHT22;6592;47.484;9.726;2022-08-18T15:47:10;19.20;99.90
13052;DHT22;6592;47.484;9.726;2022-08-18T15:49:46;19.00;99.90
13052;DHT22;6592;47.484;9.726;2022-08-18T15:52:16;18.90;99.90
13052;DHT22;6592;47.484;9.726;2022-08-18T15:54:46;18.80;99.90
13052;DHT22;6592;47.484;9.726;2022-08-18T15:57:16;18.80;99.90
13052;DHT22;6592;47.484;9.726;2022-08-18T16:00:05;18.80;99.90
13052;DHT22;6592;47.484;9.726;2022-08-18T16:02:38;18.60;99.90
13052;DHT22;6592;47.484;9.726;2022-08-18T16:05:14;18.70;99.90
13052;DHT22;6592;47.484;9.726;2022-08-18T16:07:42;18.70;99.90
13052;DHT22;6592;47.484;9.726;2022-08-18T16:10:15;18.70;99.90
13052;DHT22;6592;47.484;9.726;2022-08-18T16:12:44;18.70;99.90
13052;DHT22;6592;47.484;9.726;2022-08-18T16:15:13;18.70;99.90
13052;DHT22;6592;47.484;9.726;2022-08-18T16:17:46;18.60;99.90
13052;DHT22;6592;47.484;9.726;2022-08-18T16:20:15;18.60;99.90
13052;DHT22;6592;47.484;9.726;2022-08-18T16:22:44;18.60;99.90
13052;DHT22;6592;47.484;9.726;2022-08-18T16:25:12;18.60;99.90
13052;DHT22;6592;47.484;9.726;2022-08-18T16:27:44;18.60;99.90
13052;DHT22;6592;47.484;9.726;2022-08-18T16:30:14;18.60;99.90
13052;DHT22;6592;47.484;9.726;2022-08-18T16:32:44;18.60;99.90
13052;DHT22;6592;47.484;9.726;2022-08-18T16:35:13;18.60;99.90
13052;DHT22;6592;47.484;9.726;2022-08-18T16:37:41;18.60;99.90
13052;DHT22;6592;47.484;9.726;2022-08-18T16:40:10;18.70;99.90
13052;DHT22;6592;47.484;9.726;2022-08-18T16:42:38;18.80;99.90
13052;DHT22;6592;47.484;9.726;2022-08-18T16:45:09;18.80;99.90
13052;DHT22;6592;47.484;9.726;2022-08-18T16:47:39;18.90;99.90
13052;DHT22;6592;47.484;9.726;2022-08-18T16:50:07;19.00;99.90
13052;DHT22;6592;47.484;9.726;2022-08-18T16:52:36;19.30;99.90